KEVB/EVB METAR and TAF weather

Enter ICAO airport designator
Station Type Date Time Source
KEVB METAR 2019/09/21 01:47 UTC NOAA

KEVB 210147Z 10012G22KT 10SM SCT030 26/19 A3017 RMK LAST


Station Type Date Time Source
KEVB Decoded METAR 2019/09/21 01:47 UTC NOAA

New Smyrna Beach, New Smyrna Beach Municipal Airport, FL, United States (KEVB) 29-03-20N 080-56-54W
Sep 20, 2019 - 09:47 PM EDT / 2019.09.21 0147 UTC
Wind: from the E (100 degrees) at 14 MPH (12 KT) gusting to 25 MPH (22 KT):0
Visibility: 10 mile(s):0
Sky conditions: partly cloudy
Temperature: 78 F (26 C)
Dew Point: 66 F (19 C)
Relative Humidity: 65%
Pressure (altimeter): 30.17 in. Hg (1021 hPa)
ob: KEVB 210147Z 10012G22KT 10SM SCT030 26/19 A3017 RMK LAST
cycle: 2

Station Type Date Time Source
KEVB TAF UTC NOAA

Error!

Example: see airport list